sensor_id;sensor_type;location;lat;lon;timestamp;temperature;humidity
19437;DHT22;9854;50.968;4.168;2022-12-07T00:01:09;6.40;99.90
19437;DHT22;9854;50.968;4.168;2022-12-07T00:03:37;6.30;99.90
19437;DHT22;9854;50.968;4.168;2022-12-07T00:06:04;6.50;99.90
19437;DHT22;9854;50.968;4.168;2022-12-07T00:08:31;6.40;99.90
19437;DHT22;9854;50.968;4.168;2022-12-07T00:11:08;6.30;99.90
19437;DHT22;9854;50.968;4.168;2022-12-07T00:13:35;6.30;99.90
19437;DHT22;9854;50.968;4.168;2022-12-07T00:16:09;6.40;99.90
19437;DHT22;9854;50.968;4.168;2022-12-07T00:18:35;6.30;99.90
19437;DHT22;9854;50.968;4.168;2022-12-07T00:21:05;6.20;99.90
19437;DHT22;9854;50.968;4.168;2022-12-07T00:23:32;6.10;99.90
19437;DHT22;9854;50.968;4.168;2022-12-07T00:26:20;6.00;99.90
19437;DHT22;9854;50.968;4.168;2022-12-07T00:28:50;5.90;99.90
19437;DHT22;9854;50.968;4.168;2022-12-07T00:31:18;5.80;99.90
19437;DHT22;9854;50.968;4.168;2022-12-07T00:33:44;5.80;99.90
19437;DHT22;9854;50.968;4.168;2022-12-07T00:36:16;5.80;99.90
19437;DHT22;9854;50.968;4.168;2022-12-07T00:38:43;6.00;99.90
19437;DHT22;9854;50.968;4.168;2022-12-07T00:41:14;6.10;99.90
19437;DHT22;9854;50.968;4.168;2022-12-07T00:43:40;6.00;99.90
19437;DHT22;9854;50.968;4.168;2022-12-07T00:46:06;6.00;99.90
19437;DHT22;9854;50.968;4.168;2022-12-07T00:48:32;6.00;99.90
19437;DHT22;9854;50.968;4.168;2022-12-07T00:50:58;6.10;99.90
19437;DHT22;9854;50.968;4.168;2022-12-07T00:53:24;6.00;99.90
19437;DHT22;9854;50.968;4.168;2022-12-07T00:55:50;6.00;99.90
19437;DHT22;9854;50.968;4.168;2022-12-07T00:58:16;6.00;99.90
19437;DHT22;9854;50.968;4.168;2022-12-07T01:00:42;6.20;99.90
19437;DHT22;9854;50.968;4.168;2022-12-07T01:03:10;6.20;99.90
19437;DHT22;9854;50.968;4.168;2022-12-07T01:05:36;6.20;99.90
19437;DHT22;9854;50.968;4.168;2022-12-07T01:08:02;6.20;99.90
19437;DHT22;9854;50.968;4.168;2022-12-07T01:10:28;6.20;99.90
19437;DHT22;9854;50.968;4.168;2022-12-07T01:12:55;6.10;99.90
19437;DHT22;9854;50.968;4.168;2022-12-07T01:15:21;6.10;99.90
19437;DHT22;9854;50.968;4.168;2022-12-07T01:17:46;6.10;99.90
19437;DHT22;9854;50.968;4.168;2022-12-07T01:20:12;6.20;99.90
19437;DHT22;9854;50.968;4.168;2022-12-07T01:22:40;6.10;99.90
19437;DHT22;9854;50.968;4.168;2022-12-07T01:25:07;6.10;99.90
19437;DHT22;9854;50.968;4.168;2022-12-07T01:27:33;6.10;99.90
19437;DHT22;9854;50.968;4.168;2022-12-07T01:30:00;6.00;99.90
19437;DHT22;9854;50.968;4.168;2022-12-07T01:32:26;6.10;99.90
19437;DHT22;9854;50.968;4.168;2022-12-07T01:34:52;6.10;99.90
19437;DHT22;9854;50.968;4.168;2022-12-07T01:37:18;6.00;99.90
19437;DHT22;9854;50.968;4.168;2022-12-07T01:39:43;6.00;99.90
19437;DHT22;9854;50.968;4.168;2022-12-07T01:42:12;6.10;99.90
19437;DHT22;9854;50.968;4.168;2022-12-07T01:47:43;6.20;99.90
19437;DHT22;9854;50.968;4.168;2022-12-07T01:50:10;6.30;99.90
19437;DHT22;9854;50.968;4.168;2022-12-07T01:52:38;6.40;99.90
19437;DHT22;9854;50.968;4.168;2022-12-07T01:55:07;6.50;99.90
19437;DHT22;9854;50.968;4.168;2022-12-07T01:57:35;6.60;99.90
19437;DHT22;9854;50.968;4.168;2022-12-07T02:00:04;6.60;99.90
19437;DHT22;9854;50.968;4.168;2022-12-07T02:02:34;6.60;99.90
19437;DHT22;9854;50.968;4.168;2022-12-07T02:05:02;6.50;99.90
19437;DHT22;9854;50.968;4.168;2022-12-07T02:07:29;6.40;99.90
19437;DHT22;9854;50.968;4.168;2022-12-07T02:09:56;6.50;99.90
19437;DHT22;9854;50.968;4.168;2022-12-07T02:12:23;6.50;99.90
19437;DHT22;9854;50.968;4.168;2022-12-07T02:14:50;6.60;99.90
19437;DHT22;9854;50.968;4.168;2022-12-07T02:17:26;6.70;99.90
19437;DHT22;9854;50.968;4.168;2022-12-07T02:31:05;6.50;99.90
19437;DHT22;9854;50.968;4.168;2022-12-07T02:33:39;6.30;99.90
19437;DHT22;9854;50.968;4.168;2022-12-07T02:36:10;6.30;99.90
19437;DHT22;9854;50.968;4.168;2022-12-07T02:41:38;6.20;99.90
19437;DHT22;9854;50.968;4.168;2022-12-07T02:44:09;6.20;99.90
19437;DHT22;9854;50.968;4.168;2022-12-07T02:46:57;6.20;99.90
19437;DHT22;9854;50.968;4.168;2022-12-07T02:49:26;6.20;99.90
19437;DHT22;9854;50.968;4.168;2022-12-07T02:51:52;6.20;99.90
19437;DHT22;9854;50.968;4.168;2022-12-07T02:54:20;6.10;99.90
19437;DHT22;9854;50.968;4.168;2022-12-07T02:56:58;6.10;99.90
19437;DHT22;9854;50.968;4.168;2022-12-07T03:04:52;6.00;99.90
19437;DHT22;9854;50.968;4.168;2022-12-07T03:18:43;6.20;99.90
19437;DHT22;9854;50.968;4.168;2022-12-07T03:21:15;6.10;99.90
19437;DHT22;9854;50.968;4.168;2022-12-07T03:23:45;5.90;99.90
19437;DHT22;9854;50.968;4.168;2022-12-07T03:26:13;6.10;99.90
19437;DHT22;9854;50.968;4.168;2022-12-07T03:28:44;6.10;99.90
19437;DHT22;9854;50.968;4.168;2022-12-07T03:31:23;6.20;99.90
19437;DHT22;9854;50.968;4.168;2022-12-07T03:34:11;6.20;99.90
19437;DHT22;9854;50.968;4.168;2022-12-07T03:36:50;6.10;99.90
19437;DHT22;9854;50.968;4.168;2022-12-07T03:39:38;6.30;99.90
19437;DHT22;9854;50.968;4.168;2022-12-07T03:42:06;6.40;99.90
19437;DHT22;9854;50.968;4.168;2022-12-07T03:44:34;6.50;99.90
19437;DHT22;9854;50.968;4.168;2022-12-07T03:49:53;6.30;99.90
19437;DHT22;9854;50.968;4.168;2022-12-07T03:55:15;6.00;99.90
19437;DHT22;9854;50.968;4.168;2022-12-07T03:57:45;5.90;99.90
19437;DHT22;9854;50.968;4.168;2022-12-07T04:00:12;5.90;99.90
19437;DHT22;9854;50.968;4.168;2022-12-07T04:02:39;6.00;99.90
19437;DHT22;9854;50.968;4.168;2022-12-07T04:05:05;5.90;99.90
19437;DHT22;9854;50.968;4.168;2022-12-07T04:07:31;5.80;99.90
19437;DHT22;9854;50.968;4.168;2022-12-07T04:09:57;5.80;99.90
19437;DHT22;9854;50.968;4.168;2022-12-07T04:12:23;5.90;99.90
19437;DHT22;9854;50.968;4.168;2022-12-07T04:14:49;6.00;99.90
19437;DHT22;9854;50.968;4.168;2022-12-07T04:17:14;5.70;99.90
19437;DHT22;9854;50.968;4.168;2022-12-07T04:19:40;5.50;99.90
19437;DHT22;9854;50.968;4.168;2022-12-07T04:22:06;5.40;99.90
19437;DHT22;9854;50.968;4.168;2022-12-07T04:24:33;5.40;99.90
19437;DHT22;9854;50.968;4.168;2022-12-07T04:26:58;5.50;99.90
19437;DHT22;9854;50.968;4.168;2022-12-07T04:29:25;5.60;99.90
19437;DHT22;9854;50.968;4.168;2022-12-07T04:31:51;5.60;99.90
19437;DHT22;9854;50.968;4.168;2022-12-07T04:34:18;5.60;99.90
19437;DHT22;9854;50.968;4.168;2022-12-07T04:36:44;5.70;99.90
19437;DHT22;9854;50.968;4.168;2022-12-07T04:39:30;5.70;99.90
19437;DHT22;9854;50.968;4.168;2022-12-07T04:41:56;5.60;99.90
19437;DHT22;9854;50.968;4.168;2022-12-07T04:44:23;5.60;99.90
19437;DHT22;9854;50.968;4.168;2022-12-07T04:46:50;5.50;99.90
19437;DHT22;9854;50.968;4.168;2022-12-07T04:49:16;5.50;99.90
19437;DHT22;9854;50.968;4.168;2022-12-07T04:51:42;5.50;99.90
19437;DHT22;9854;50.968;4.168;2022-12-07T04:54:08;5.50;99.90
19437;DHT22;9854;50.968;4.168;2022-12-07T04:56:34;5.50;99.90
19437;DHT22;9854;50.968;4.168;2022-12-07T04:59:01;5.50;99.90
19437;DHT22;9854;50.968;4.168;2022-12-07T05:01:27;5.40;99.90
19437;DHT22;9854;50.968;4.168;2022-12-07T05:03:53;5.40;99.90
19437;DHT22;9854;50.968;4.168;2022-12-07T05:06:18;5.50;99.90
19437;DHT22;9854;50.968;4.168;2022-12-07T05:08:44;5.60;99.90
19437;DHT22;9854;50.968;4.168;2022-12-07T05:11:10;5.50;99.90
19437;DHT22;9854;50.968;4.168;2022-12-07T05:14:04;5.50;99.90
19437;DHT22;9854;50.968;4.168;2022-12-07T05:16:30;5.50;99.90
19437;DHT22;9854;50.968;4.168;2022-12-07T05:18:56;5.40;99.90
19437;DHT22;9854;50.968;4.168;2022-12-07T05:21:22;5.50;99.90
19437;DHT22;9854;50.968;4.168;2022-12-07T05:23:48;5.60;99.90
19437;DHT22;9854;50.968;4.168;2022-12-07T05:26:13;5.50;99.90
19437;DHT22;9854;50.968;4.168;2022-12-07T05:28:39;5.60;99.90
19437;DHT22;9854;50.968;4.168;2022-12-07T05:31:05;5.50;99.90
19437;DHT22;9854;50.968;4.168;2022-12-07T05:33:30;5.50;99.90
19437;DHT22;9854;50.968;4.168;2022-12-07T05:35:56;5.50;99.90
19437;DHT22;9854;50.968;4.168;2022-12-07T05:38:22;5.60;99.90
19437;DHT22;9854;50.968;4.168;2022-12-07T05:40:47;5.50;99.90
19437;DHT22;9854;50.968;4.168;2022-12-07T05:43:13;5.50;99.90
19437;DHT22;9854;50.968;4.168;2022-12-07T05:45:39;5.30;99.90
19437;DHT22;9854;50.968;4.168;2022-12-07T05:48:04;5.20;99.90
19437;DHT22;9854;50.968;4.168;2022-12-07T05:50:30;5.40;99.90
19437;DHT22;9854;50.968;4.168;2022-12-07T05:52:55;5.30;99.90
19437;DHT22;9854;50.968;4.168;2022-12-07T05:55:21;5.30;99.90
19437;DHT22;9854;50.968;4.168;2022-12-07T05:57:47;5.60;99.90
19437;DHT22;9854;50.968;4.168;2022-12-07T06:00:31;5.70;99.90
19437;DHT22;9854;50.968;4.168;2022-12-07T06:02:57;5.60;99.90
19437;DHT22;9854;50.968;4.168;2022-12-07T06:05:23;5.60;99.90
19437;DHT22;9854;50.968;4.168;2022-12-07T06:07:49;5.60;99.90
19437;DHT22;9854;50.968;4.168;2022-12-07T06:10:15;5.70;99.90
19437;DHT22;9854;50.968;4.168;2022-12-07T06:12:40;5.60;99.90
19437;DHT22;9854;50.968;4.168;2022-12-07T06:15:09;5.60;99.90
19437;DHT22;9854;50.968;4.168;2022-12-07T06:17:35;5.80;99.90
19437;DHT22;9854;50.968;4.168;2022-12-07T06:20:01;5.80;99.90
19437;DHT22;9854;50.968;4.168;2022-12-07T06:22:27;5.80;99.90
19437;DHT22;9854;50.968;4.168;2022-12-07T06:24:53;5.70;99.90
19437;DHT22;9854;50.968;4.168;2022-12-07T06:27:18;5.70;99.90
19437;DHT22;9854;50.968;4.168;2022-12-07T06:29:44;5.80;99.90
19437;DHT22;9854;50.968;4.168;2022-12-07T06:32:09;5.70;99.90
19437;DHT22;9854;50.968;4.168;2022-12-07T06:34:35;5.80;99.90
19437;DHT22;9854;50.968;4.168;2022-12-07T06:37:01;5.80;99.90
19437;DHT22;9854;50.968;4.168;2022-12-07T06:39:28;5.80;99.90
19437;DHT22;9854;50.968;4.168;2022-12-07T06:41:54;6.00;99.90
19437;DHT22;9854;50.968;4.168;2022-12-07T06:44:20;5.90;99.90
19437;DHT22;9854;50.968;4.168;2022-12-07T06:46:47;5.80;99.90
19437;DHT22;9854;50.968;4.168;2022-12-07T06:49:13;5.60;99.90
19437;DHT22;9854;50.968;4.168;2022-12-07T06:51:39;5.50;99.90
19437;DHT22;9854;50.968;4.168;2022-12-07T06:54:10;5.50;99.90
19437;DHT22;9854;50.968;4.168;2022-12-07T06:56:36;5.60;99.90
19437;DHT22;9854;50.968;4.168;2022-12-07T06:59:02;5.60;99.90
19437;DHT22;9854;50.968;4.168;2022-12-07T07:01:28;5.60;99.90
19437;DHT22;9854;50.968;4.168;2022-12-07T07:03:54;5.70;99.90
19437;DHT22;9854;50.968;4.168;2022-12-07T07:06:19;5.80;99.90
19437;DHT22;9854;50.968;4.168;2022-12-07T07:08:45;5.80;99.90
19437;DHT22;9854;50.968;4.168;2022-12-07T07:11:11;5.80;99.90
19437;DHT22;9854;50.968;4.168;2022-12-07T07:13:37;5.70;99.90
19437;DHT22;9854;50.968;4.168;2022-12-07T07:16:03;5.50;99.90
19437;DHT22;9854;50.968;4.168;2022-12-07T07:18:29;5.50;99.90
19437;DHT22;9854;50.968;4.168;2022-12-07T07:20:55;5.50;99.90
19437;DHT22;9854;50.968;4.168;2022-12-07T07:23:21;5.70;99.90
19437;DHT22;9854;50.968;4.168;2022-12-07T07:25:47;5.80;99.90
19437;DHT22;9854;50.968;4.168;2022-12-07T07:28:13;5.80;99.90
19437;DHT22;9854;50.968;4.168;2022-12-07T07:30:39;5.80;99.90
19437;DHT22;9854;50.968;4.168;2022-12-07T07:33:05;5.70;99.90
19437;DHT22;9854;50.968;4.168;2022-12-07T07:35:32;5.80;99.90
19437;DHT22;9854;50.968;4.168;2022-12-07T07:37:58;5.90;99.90
19437;DHT22;9854;50.968;4.168;2022-12-07T07:40:24;5.80;99.90
19437;DHT22;9854;50.968;4.168;2022-12-07T07:42:51;5.70;99.90
19437;DHT22;9854;50.968;4.168;2022-12-07T07:45:19;5.70;99.90
19437;DHT22;9854;50.968;4.168;2022-12-07T07:47:44;5.90;99.90
19437;DHT22;9854;50.968;4.168;2022-12-07T07:50:10;5.90;99.90
19437;DHT22;9854;50.968;4.168;2022-12-07T07:52:36;5.80;99.90
19437;DHT22;9854;50.968;4.168;2022-12-07T07:55:02;5.60;99.90
19437;DHT22;9854;50.968;4.168;2022-12-07T07:57:28;5.40;99.90
19437;DHT22;9854;50.968;4.168;2022-12-07T07:59:53;5.60;99.90
19437;DHT22;9854;50.968;4.168;2022-12-07T08:02:20;5.60;99.90
19437;DHT22;9854;50.968;4.168;2022-12-07T08:04:46;5.70;99.90
19437;DHT22;9854;50.968;4.168;2022-12-07T08:07:12;5.70;99.90
19437;DHT22;9854;50.968;4.168;2022-12-07T08:09:38;5.60;99.90
19437;DHT22;9854;50.968;4.168;2022-12-07T08:12:04;5.60;99.90
19437;DHT22;9854;50.968;4.168;2022-12-07T08:14:30;5.60;99.90
19437;DHT22;9854;50.968;4.168;2022-12-07T08:16:56;5.70;99.90
19437;DHT22;9854;50.968;4.168;2022-12-07T08:19:22;5.70;99.90
19437;DHT22;9854;50.968;4.168;2022-12-07T08:21:47;5.60;99.90
19437;DHT22;9854;50.968;4.168;2022-12-07T08:24:13;5.60;99.90
19437;DHT22;9854;50.968;4.168;2022-12-07T08:26:39;5.70;99.90
19437;DHT22;9854;50.968;4.168;2022-12-07T08:29:05;5.70;99.90
19437;DHT22;9854;50.968;4.168;2022-12-07T08:31:30;5.70;99.90
19437;DHT22;9854;50.968;4.168;2022-12-07T08:33:56;5.80;99.90
19437;DHT22;9854;50.968;4.168;2022-12-07T08:36:23;5.90;99.90
19437;DHT22;9854;50.968;4.168;2022-12-07T08:38:49;6.00;99.90
19437;DHT22;9854;50.968;4.168;2022-12-07T08:41:15;6.10;99.90
19437;DHT22;9854;50.968;4.168;2022-12-07T08:43:41;6.20;99.90
19437;DHT22;9854;50.968;4.168;2022-12-07T08:46:11;6.20;99.90
19437;DHT22;9854;50.968;4.168;2022-12-07T08:48:41;6.30;99.90
19437;DHT22;9854;50.968;4.168;2022-12-07T08:51:09;6.30;99.90
19437;DHT22;9854;50.968;4.168;2022-12-07T08:53:37;6.20;99.90
19437;DHT22;9854;50.968;4.168;2022-12-07T08:56:03;6.20;99.90
19437;DHT22;9854;50.968;4.168;2022-12-07T08:58:30;6.30;99.90
19437;DHT22;9854;50.968;4.168;2022-12-07T09:00:55;6.40;99.90
19437;DHT22;9854;50.968;4.168;2022-12-07T09:03:21;6.50;99.90
19437;DHT22;9854;50.968;4.168;2022-12-07T09:05:46;6.50;99.90
19437;DHT22;9854;50.968;4.168;2022-12-07T09:08:12;6.40;99.90
19437;DHT22;9854;50.968;4.168;2022-12-07T09:10:38;6.30;99.90
19437;DHT22;9854;50.968;4.168;2022-12-07T09:13:04;6.30;99.90
19437;DHT22;9854;50.968;4.168;2022-12-07T09:15:30;6.30;99.90
19437;DHT22;9854;50.968;4.168;2022-12-07T09:17:56;6.40;99.90
19437;DHT22;9854;50.968;4.168;2022-12-07T09:20:22;6.50;99.90
19437;DHT22;9854;50.968;4.168;2022-12-07T09:22:48;6.60;99.90
19437;DHT22;9854;50.968;4.168;2022-12-07T09:25:13;6.60;99.90
19437;DHT22;9854;50.968;4.168;2022-12-07T09:27:39;6.70;99.90
19437;DHT22;9854;50.968;4.168;2022-12-07T09:30:05;6.80;99.90
19437;DHT22;9854;50.968;4.168;2022-12-07T09:32:31;6.90;99.90
19437;DHT22;9854;50.968;4.168;2022-12-07T09:34:57;7.00;99.90
19437;DHT22;9854;50.968;4.168;2022-12-07T09:37:22;7.10;99.90
19437;DHT22;9854;50.968;4.168;2022-12-07T09:39:48;6.90;99.90
19437;DHT22;9854;50.968;4.168;2022-12-07T09:42:26;6.90;99.90
19437;DHT22;9854;50.968;4.168;2022-12-07T09:44:53;6.90;99.90
19437;DHT22;9854;50.968;4.168;2022-12-07T09:47:19;6.90;99.90
19437;DHT22;9854;50.968;4.168;2022-12-07T09:49:44;6.80;99.90
19437;DHT22;9854;50.968;4.168;2022-12-07T09:52:25;6.70;99.90
19437;DHT22;9854;50.968;4.168;2022-12-07T09:54:52;6.70;99.90
19437;DHT22;9854;50.968;4.168;2022-12-07T09:57:29;6.50;99.90
19437;DHT22;9854;50.968;4.168;2022-12-07T10:00:03;6.50;99.90
19437;DHT22;9854;50.968;4.168;2022-12-07T10:02:41;6.40;99.90
19437;DHT22;9854;50.968;4.168;2022-12-07T10:05:16;6.50;99.90
19437;DHT22;9854;50.968;4.168;2022-12-07T10:07:43;6.60;99.90
19437;DHT22;9854;50.968;4.168;2022-12-07T10:10:15;6.80;99.90
19437;DHT22;9854;50.968;4.168;2022-12-07T10:13:00;7.00;99.90
19437;DHT22;9854;50.968;4.168;2022-12-07T10:18:32;6.80;99.90
19437;DHT22;9854;50.968;4.168;2022-12-07T10:21:10;6.80;99.90
19437;DHT22;9854;50.968;4.168;2022-12-07T10:23:38;7.10;99.90
19437;DHT22;9854;50.968;4.168;2022-12-07T10:28:50;7.10;99.90
19437;DHT22;9854;50.968;4.168;2022-12-07T10:31:18;7.20;99.90
19437;DHT22;9854;50.968;4.168;2022-12-07T10:33:59;7.40;99.90
19437;DHT22;9854;50.968;4.168;2022-12-07T10:39:21;7.50;99.90
19437;DHT22;9854;50.968;4.168;2022-12-07T10:44:30;7.10;99.90
19437;DHT22;9854;50.968;4.168;2022-12-07T10:47:31;6.90;99.90
19437;DHT22;9854;50.968;4.168;2022-12-07T11:12:07;7.10;99.90
19437;DHT22;9854;50.968;4.168;2022-12-07T11:17:58;7.40;99.90
19437;DHT22;9854;50.968;4.168;2022-12-07T11:23:15;7.70;99.90
19437;DHT22;9854;50.968;4.168;2022-12-07T11:25:49;7.60;99.90
19437;DHT22;9854;50.968;4.168;2022-12-07T11:31:06;7.90;99.90
19437;DHT22;9854;50.968;4.168;2022-12-07T11:36:47;7.70;99.90
19437;DHT22;9854;50.968;4.168;2022-12-07T11:41:45;7.50;99.90
19437;DHT22;9854;50.968;4.168;2022-12-07T11:47:05;7.60;99.90
19437;DHT22;9854;50.968;4.168;2022-12-07T11:52:02;7.40;99.90
19437;DHT22;9854;50.968;4.168;2022-12-07T11:54:35;7.50;99.90
19437;DHT22;9854;50.968;4.168;2022-12-07T11:57:17;7.60;99.90
19437;DHT22;9854;50.968;4.168;2022-12-07T11:59:50;7.70;99.90
19437;DHT22;9854;50.968;4.168;2022-12-07T12:02:21;8.20;99.90
19437;DHT22;9854;50.968;4.168;2022-12-07T12:04:59;8.40;99.90
19437;DHT22;9854;50.968;4.168;2022-12-07T12:07:28;8.50;99.90
19437;DHT22;9854;50.968;4.168;2022-12-07T12:10:14;8.40;99.90
19437;DHT22;9854;50.968;4.168;2022-12-07T12:13:10;8.20;99.90
19437;DHT22;9854;50.968;4.168;2022-12-07T12:16:23;8.00;99.90
19437;DHT22;9854;50.968;4.168;2022-12-07T12:21:33;7.80;99.90
19437;DHT22;9854;50.968;4.168;2022-12-07T12:26:37;7.60;99.90
19437;DHT22;9854;50.968;4.168;2022-12-07T12:29:06;7.60;99.90
19437;DHT22;9854;50.968;4.168;2022-12-07T12:31:40;7.60;99.90
19437;DHT22;9854;50.968;4.168;2022-12-07T12:34:33;7.70;99.90
19437;DHT22;9854;50.968;4.168;2022-12-07T12:37:38;8.00;99.90
19437;DHT22;9854;50.968;4.168;2022-12-07T12:42:56;8.00;99.90
19437;DHT22;9854;50.968;4.168;2022-12-07T12:45:24;8.00;99.90
19437;DHT22;9854;50.968;4.168;2022-12-07T12:48:27;8.00;99.90
19437;DHT22;9854;50.968;4.168;2022-12-07T12:51:36;7.90;99.90
19437;DHT22;9854;50.968;4.168;2022-12-07T12:54:12;7.90;99.90
19437;DHT22;9854;50.968;4.168;2022-12-07T12:56:59;7.80;99.90
19437;DHT22;9854;50.968;4.168;2022-12-07T12:59:31;7.70;99.90
19437;DHT22;9854;50.968;4.168;2022-12-07T13:04:52;7.80;99.90
19437;DHT22;9854;50.968;4.168;2022-12-07T13:10:36;7.70;99.90
19437;DHT22;9854;50.968;4.168;2022-12-07T13:15:37;8.10;99.90
19437;DHT22;9854;50.968;4.168;2022-12-07T13:20:57;8.20;99.90
19437;DHT22;9854;50.968;4.168;2022-12-07T13:23:24;8.20;99.90
19437;DHT22;9854;50.968;4.168;2022-12-07T13:28:22;8.20;99.90
19437;DHT22;9854;50.968;4.168;2022-12-07T13:31:14;8.00;99.90
19437;DHT22;9854;50.968;4.168;2022-12-07T13:33:46;7.60;99.90
19437;DHT22;9854;50.968;4.168;2022-12-07T13:36:20;7.30;99.90
19437;DHT22;9854;50.968;4.168;2022-12-07T13:41:19;7.00;99.90
19437;DHT22;9854;50.968;4.168;2022-12-07T13:43:52;6.90;99.90
19437;DHT22;9854;50.968;4.168;2022-12-07T13:46:24;6.80;99.90
19437;DHT22;9854;50.968;4.168;2022-12-07T13:48:51;6.90;99.90
19437;DHT22;9854;50.968;4.168;2022-12-07T13:51:25;7.00;99.90
19437;DHT22;9854;50.968;4.168;2022-12-07T13:54:07;6.80;99.90
19437;DHT22;9854;50.968;4.168;2022-12-07T13:56:35;6.80;99.90
19437;DHT22;9854;50.968;4.168;2022-12-07T13:59:02;6.90;99.90
19437;DHT22;9854;50.968;4.168;2022-12-07T14:01:30;6.80;99.90
19437;DHT22;9854;50.968;4.168;2022-12-07T14:06:57;6.60;99.90
19437;DHT22;9854;50.968;4.168;2022-12-07T14:09:24;6.50;99.90
19437;DHT22;9854;50.968;4.168;2022-12-07T14:11:53;6.50;99.90
19437;DHT22;9854;50.968;4.168;2022-12-07T14:14:22;6.50;99.90
19437;DHT22;9854;50.968;4.168;2022-12-07T14:17:17;6.60;99.90
19437;DHT22;9854;50.968;4.168;2022-12-07T14:19:58;6.70;99.90
19437;DHT22;9854;50.968;4.168;2022-12-07T14:22:38;6.80;99.90
19437;DHT22;9854;50.968;4.168;2022-12-07T14:27:39;7.00;99.90
19437;DHT22;9854;50.968;4.168;2022-12-07T14:30:05;6.90;99.90
19437;DHT22;9854;50.968;4.168;2022-12-07T14:32:34;7.00;99.90
19437;DHT22;9854;50.968;4.168;2022-12-07T14:37:32;7.00;99.90
19437;DHT22;9854;50.968;4.168;2022-12-07T14:39:58;7.10;99.90
19437;DHT22;9854;50.968;4.168;2022-12-07T14:42:27;7.20;99.90
19437;DHT22;9854;50.968;4.168;2022-12-07T14:44:53;7.30;99.90
19437;DHT22;9854;50.968;4.168;2022-12-07T14:47:19;7.30;99.90
19437;DHT22;9854;50.968;4.168;2022-12-07T14:49:44;7.30;99.90
19437;DHT22;9854;50.968;4.168;2022-12-07T14:52:14;7.40;99.90
19437;DHT22;9854;50.968;4.168;2022-12-07T14:54:41;7.40;99.90
19437;DHT22;9854;50.968;4.168;2022-12-07T14:57:09;7.40;99.90
19437;DHT22;9854;50.968;4.168;2022-12-07T14:59:35;7.40;99.90
19437;DHT22;9854;50.968;4.168;2022-12-07T15:02:01;7.40;99.90
19437;DHT22;9854;50.968;4.168;2022-12-07T15:04:26;7.40;99.90
19437;DHT22;9854;50.968;4.168;2022-12-07T15:06:59;7.30;99.90
19437;DHT22;9854;50.968;4.168;2022-12-07T15:09:25;7.20;99.90
19437;DHT22;9854;50.968;4.168;2022-12-07T15:11:51;7.10;99.90
19437;DHT22;9854;50.968;4.168;2022-12-07T15:14:17;7.00;99.90
19437;DHT22;9854;50.968;4.168;2022-12-07T15:16:43;6.90;99.90
19437;DHT22;9854;50.968;4.168;2022-12-07T15:19:26;6.80;99.90
19437;DHT22;9854;50.968;4.168;2022-12-07T15:21:52;6.90;99.90
19437;DHT22;9854;50.968;4.168;2022-12-07T15:24:19;6.70;99.90
19437;DHT22;9854;50.968;4.168;2022-12-07T15:26:45;6.80;99.90
19437;DHT22;9854;50.968;4.168;2022-12-07T15:29:11;6.80;99.90
19437;DHT22;9854;50.968;4.168;2022-12-07T15:31:37;6.80;99.90
19437;DHT22;9854;50.968;4.168;2022-12-07T15:34:03;6.80;99.90
19437;DHT22;9854;50.968;4.168;2022-12-07T15:36:32;6.70;99.90
19437;DHT22;9854;50.968;4.168;2022-12-07T15:38:58;6.60;99.90
19437;DHT22;9854;50.968;4.168;2022-12-07T15:41:24;6.50;99.90
19437;DHT22;9854;50.968;4.168;2022-12-07T15:43:50;6.50;99.90
19437;DHT22;9854;50.968;4.168;2022-12-07T15:46:36;6.60;99.90
19437;DHT22;9854;50.968;4.168;2022-12-07T15:49:03;6.70;99.90
19437;DHT22;9854;50.968;4.168;2022-12-07T15:51:29;6.70;99.90
19437;DHT22;9854;50.968;4.168;2022-12-07T15:53:57;6.80;99.90
19437;DHT22;9854;50.968;4.168;2022-12-07T15:56:23;6.90;99.90
19437;DHT22;9854;50.968;4.168;2022-12-07T15:58:48;6.90;99.90
19437;DHT22;9854;50.968;4.168;2022-12-07T16:01:17;6.90;99.90
19437;DHT22;9854;50.968;4.168;2022-12-07T16:03:43;6.90;99.90
19437;DHT22;9854;50.968;4.168;2022-12-07T16:06:09;7.10;99.90
19437;DHT22;9854;50.968;4.168;2022-12-07T16:08:35;7.10;99.90
19437;DHT22;9854;50.968;4.168;2022-12-07T16:11:05;7.10;99.90
19437;DHT22;9854;50.968;4.168;2022-12-07T16:13:31;7.10;99.90
19437;DHT22;9854;50.968;4.168;2022-12-07T16:15:56;7.50;99.90
19437;DHT22;9854;50.968;4.168;2022-12-07T16:18:22;7.50;99.90
19437;DHT22;9854;50.968;4.168;2022-12-07T16:20:48;7.70;99.90
19437;DHT22;9854;50.968;4.168;2022-12-07T16:23:15;7.50;99.90
19437;DHT22;9854;50.968;4.168;2022-12-07T16:25:40;7.40;99.90
19437;DHT22;9854;50.968;4.168;2022-12-07T16:28:06;7.30;99.90
19437;DHT22;9854;50.968;4.168;2022-12-07T16:30:33;7.20;99.90
19437;DHT22;9854;50.968;4.168;2022-12-07T16:32:59;7.10;99.90
19437;DHT22;9854;50.968;4.168;2022-12-07T16:35:24;7.10;99.90
19437;DHT22;9854;50.968;4.168;2022-12-07T16:37:50;7.10;99.90
19437;DHT22;9854;50.968;4.168;2022-12-07T16:40:15;7.00;99.90
19437;DHT22;9854;50.968;4.168;2022-12-07T16:42:41;6.90;99.90
19437;DHT22;9854;50.968;4.168;2022-12-07T16:45:07;6.90;99.90
19437;DHT22;9854;50.968;4.168;2022-12-07T16:47:33;6.90;99.90
19437;DHT22;9854;50.968;4.168;2022-12-07T16:49:58;6.80;99.90
19437;DHT22;9854;50.968;4.168;2022-12-07T16:52:24;6.70;99.90
19437;DHT22;9854;50.968;4.168;2022-12-07T16:54:50;6.50;99.90
19437;DHT22;9854;50.968;4.168;2022-12-07T16:57:16;6.40;99.90
19437;DHT22;9854;50.968;4.168;2022-12-07T16:59:42;6.40;99.90
19437;DHT22;9854;50.968;4.168;2022-12-07T17:02:11;6.50;99.90
19437;DHT22;9854;50.968;4.168;2022-12-07T17:04:37;6.60;99.90
19437;DHT22;9854;50.968;4.168;2022-12-07T17:07:05;6.50;99.90
19437;DHT22;9854;50.968;4.168;2022-12-07T17:09:31;6.50;99.90
19437;DHT22;9854;50.968;4.168;2022-12-07T17:11:56;6.50;99.90
19437;DHT22;9854;50.968;4.168;2022-12-07T17:14:22;6.90;99.90
19437;DHT22;9854;50.968;4.168;2022-12-07T17:17:06;6.90;99.90
19437;DHT22;9854;50.968;4.168;2022-12-07T17:19:32;7.10;99.90
19437;DHT22;9854;50.968;4.168;2022-12-07T17:21:58;7.10;99.90
19437;DHT22;9854;50.968;4.168;2022-12-07T17:24:23;7.10;99.90
19437;DHT22;9854;50.968;4.168;2022-12-07T17:26:49;7.20;99.90
19437;DHT22;9854;50.968;4.168;2022-12-07T17:29:16;7.20;99.90
19437;DHT22;9854;50.968;4.168;2022-12-07T17:31:43;7.20;99.90
19437;DHT22;9854;50.968;4.168;2022-12-07T17:34:13;7.10;99.90
19437;DHT22;9854;50.968;4.168;2022-12-07T17:36:39;7.20;99.90
19437;DHT22;9854;50.968;4.168;2022-12-07T17:39:09;7.00;99.90
19437;DHT22;9854;50.968;4.168;2022-12-07T17:41:36;7.10;99.90
19437;DHT22;9854;50.968;4.168;2022-12-07T17:44:20;7.00;99.90
19437;DHT22;9854;50.968;4.168;2022-12-07T17:46:49;7.10;99.90
19437;DHT22;9854;50.968;4.168;2022-12-07T17:49:15;6.90;99.90
19437;DHT22;9854;50.968;4.168;2022-12-07T17:51:41;6.80;99.90
19437;DHT22;9854;50.968;4.168;2022-12-07T17:54:26;6.80;99.90
19437;DHT22;9854;50.968;4.168;2022-12-07T17:56:51;6.90;99.90
19437;DHT22;9854;50.968;4.168;2022-12-07T17:59:17;7.00;99.90
19437;DHT22;9854;50.968;4.168;2022-12-07T18:01:43;7.10;99.90
19437;DHT22;9854;50.968;4.168;2022-12-07T18:04:09;7.10;99.90
19437;DHT22;9854;50.968;4.168;2022-12-07T18:06:36;6.90;99.90
19437;DHT22;9854;50.968;4.168;2022-12-07T18:09:02;6.90;99.90
19437;DHT22;9854;50.968;4.168;2022-12-07T18:11:28;6.90;99.90
19437;DHT22;9854;50.968;4.168;2022-12-07T18:13:54;6.80;99.90
19437;DHT22;9854;50.968;4.168;2022-12-07T18:16:22;6.80;99.90
19437;DHT22;9854;50.968;4.168;2022-12-07T18:18:49;6.70;99.90